Flight Track Log - Related Links

Times and Time Zones

All times are in EDT time to prevent confusion due to time zone crossing. See the ASQ5718 flight status page for this flight to view local times or setup timezone preferences in your user account.

Time Position Orientation Groundspeed Altitude Reporting Facility
EDT Latitude Longitude Course Direction KTS MPH feet Rate Location/Type
Wed 07:19:32 PM 44.3072 -73.1131 195° South 266 306 6,500  Level Boston Center
Wed 07:20:32 PM 44.2403 -73.1500 202° Southwest 273 314 9,400 2,350 Climbing Boston Center
Wed 07:21:32 PM 44.1650 -73.1867 199° South 282 325 11,200 2,150 Climbing Boston Center
Wed 07:22:00 PM 43.9330 -73.3535 196° South  Level FlightAware Approximate
Wed 07:22:32 PM 44.0858 -73.2206 197° South 295 339 13,700  Level Boston Center
Wed 07:23:00 PM 43.8439 -73.3874 195° South  Level FlightAware Approximate
Wed 07:23:32 PM 44.0106 -73.2542 198° South 295 339 15,700  Level Boston Center
Wed 07:24:00 PM 43.7547 -73.4204 195° South  Level FlightAware Approximate
Wed 07:24:32 PM 43.9311 -73.2875 197° South 295 339 17,200  Level Boston Center
Wed 07:25:32 PM 43.8642 -73.3211 200° South 310 357 18,200 1,350 Climbing Boston Center
Wed 07:26:32 PM 43.7533 -73.3686 197° South 321 369 19,900 1,150 Climbing Boston Center
Wed 07:27:32 PM 43.6717 -73.4044 198° South 331 381 20,500 682 Climbing Boston Center
Wed 07:28:44 PM 43.5778 -73.4431 197° South 343 395 21,400 818 Climbing Boston Center
Wed 07:29:44 PM 43.4625 -73.4956 198° South 357 411 22,300 850 Climbing Boston Center
Wed 07:30:44 PM 43.3642 -73.5339 196° South 368 423 23,100 800 Climbing Boston Center
Wed 07:31:44 PM 43.2639 -73.5778 198° South 368 423 23,900 850 Climbing Boston Center
Wed 07:32:44 PM 43.1653 -73.6214 198° South 368 423 24,800 850 Climbing Boston Center
Wed 07:33:44 PM 43.0586 -73.6706 199° South 373 429 25,600 600 Climbing Boston Center
Wed 07:34:44 PM 42.9581 -73.7139 198° South 373 429 26,000 200 Climbing Boston Center
Wed 07:35:44 PM 42.8617 -73.7544 197° South 373 429 26,000  Level Boston Center
Wed 07:36:44 PM 42.7592 -73.8003 198° South 379 436 26,000  Level Boston Center
Wed 07:37:44 PM 42.6564 -73.8461 198° South 384 442 26,000  Level Boston Center
Wed 07:38:44 PM 42.5725 -73.8864 199° South 378 435 26,000  Level Boston Center
Wed 07:39:44 PM 42.4664 -73.8811 178° South 373 429 26,000  Level Boston Center
Wed 07:40:44 PM 42.3606 -73.8336 162° South 378 435 26,000  Level Boston Center
Wed 07:41:56 PM 42.2300 -73.7803 163° South 397 457 26,000  Level Boston Center
Wed 07:42:56 PM 42.1261 -73.7361 162° South 397 457 26,000  Level Boston Center
Wed 07:43:56 PM 42.0178 -73.7450 183° South 391 450 26,000  Level Boston Center
Wed 07:44:56 PM 41.9092 -73.7511 182° South 386 444 26,000  Level Boston Center
Wed 07:45:56 PM 41.8028 -73.7603 184° South 386 444 26,000  Level Boston Center
Wed 07:46:56 PM 41.6922 -73.7800 188° South 386 444 26,000  Level Boston Center
Wed 07:47:56 PM 41.6781 -73.9050 261° West 309 356 26,000  Level Boston Center
Wed 07:50:16 PM 41.6728 -74.1731 269° West 309 356 26,000  Level New York Center
Wed 07:51:17 PM 41.5967 -74.2161 203° Southwest 314 361 26,000  Level New York Center
Wed 07:52:15 PM 41.4928 -74.2719 202° Southwest 344 396 26,000  Level New York Center
Wed 07:53:16 PM 41.3956 -74.3247 202° Southwest 364 419 26,000  Level New York Center
Wed 07:54:16 PM 41.2856 -74.3797 201° Southwest 386 444 26,000  Level New York Center
Wed 07:55:16 PM 41.1881 -74.4350 203° Southwest 386 444 26,000  Level New York Center
Wed 07:56:16 PM 41.0928 -74.4878 203° Southwest 386 444 26,000  Level New York Center
Wed 07:57:17 PM 40.9953 -74.5375 201° Southwest 381 438 26,000  Level New York Center
Wed 07:58:17 PM 40.9017 -74.6008 207° Southwest 381 438 26,000  Level New York Center
Wed 07:59:15 PM 40.8600 -74.7275 247° West 361 415 26,000  Level New York Center
Wed 08:00:15 PM 40.8267 -74.8461 250° West 370 426 26,000  Level New York Center
Wed 08:01:16 PM 40.7889 -74.9756 249° West 376 433 26,000  Level New York Center
Wed 08:02:16 PM 40.7486 -75.1044 248° West 381 438 26,000  Level New York Center
Wed 08:03:16 PM 40.7064 -75.2358 247° West 391 450 26,000 -198 Level New York Center
Wed 08:04:17 PM 40.6639 -75.3672 247° West 391 450 25,600 -793 Descending New York Center
Wed 08:05:17 PM 40.6167 -75.5061 246° West 402 463 24,400 -1,220 Descending New York Center
Wed 08:06:15 PM 40.5858 -75.6517 254° West 412 474 23,200 -1,210 Descending New York Center
Wed 08:07:16 PM 40.5528 -75.7942 253° West 412 474 22,000 -1,180 Descending New York Center
Wed 08:08:17 PM 40.5192 -75.9419 253° West 417 480 20,800 -992 Descending New York Center
Wed 08:09:17 PM 40.4736 -76.0775 246° West 417 480 20,000 -407 Descending New York Center
Wed 08:10:15 PM 40.4017 -76.1892 230° Southwest 403 464 20,000  Level New York Center
Wed 08:11:15 PM 40.3192 -76.3053 227° Southwest 403 464 20,000  Level New York Center
Wed 08:12:16 PM 40.2436 -76.4081 226° Southwest 408 470 20,000  Level New York Center
Wed 08:13:16 PM 40.1636 -76.5075 224° Southwest 403 464 20,000 -595 Level New York Center
Wed 08:14:17 PM 40.0944 -76.6022 226° Southwest 403 464 18,800 -1,098 Descending New York Center
Wed 08:15:49 PM 39.9833 -76.7667 229° Southwest 394 453 17,200 -1,145 Descending Potomac TRACON
Wed 08:16:49 PM 39.9000 -76.8500 218° Southwest 373 429 15,900 -1,350 Descending Potomac TRACON
Wed 08:17:49 PM 39.8333 -76.9333 224° Southwest 344 396 14,500 -1,400 Descending Potomac TRACON
Wed 08:18:49 PM 39.7833 -77.0333 237° Southwest 324 373 13,100 -1,400 Descending Potomac TRACON
Wed 08:19:49 PM 39.7333 -77.1167 232° Southwest 322 371 11,700 -1,400 Descending Potomac TRACON
Wed 08:20:49 PM 39.6833 -77.2167 237° Southwest 319 367 10,300 -800 Descending Potomac TRACON
Wed 08:21:49 PM 39.6333 -77.3167 237° Southwest 293 337 10,100 -105 Descending Potomac TRACON
Wed 08:22:43 PM 39.5667 -77.3667 210° Southwest 264 304 10,100 -579 Level Potomac TRACON
Wed 08:23:43 PM 39.5000 -77.4167 210° Southwest 269 310 9,000 -1,240 Descending Potomac TRACON
Wed 08:24:44 PM 39.4333 -77.4500 201° Southwest 260 299 7,600 -1,041 Descending Potomac TRACON
Wed 08:25:44 PM 39.3667 -77.4500 180° South 257 296 6,900 -714 Descending Potomac TRACON
Wed 08:26:50 PM 39.3000 -77.4500 180° South 248 285 6,100 -762 Descending Potomac TRACON
Wed 08:27:50 PM 39.2333 -77.4500 180° South 235 270 5,300 -1,000 Descending Potomac TRACON
Wed 08:28:50 PM 39.1667 -77.4500 180° South 208 239 4,100 -1,100 Descending Potomac TRACON
Wed 08:29:50 PM 39.1167 -77.4500 180° South 173 199 3,100 -1,000 Descending Potomac TRACON

Login

Don't have an account? Register now (free) for customized features, flight alerts, and more!